Bedwas, United Kingdom
Current Conditions -  °F | °C
As of 10:50 PM on Saturday 25 Oct 2014 (Local Time) from EGFF Reporting Station
Overcast Overcast  
Wind Chill: 55°   Ceiling: 3000
Heat Index: 55°   Visibility: 6mi
Dew Point: 52°   Wind: 9mph
Humidity: 88%   Direction: 240°WSW
Pressure: 30.12"   Gusts: NA
Location:  51.59°N, 3.2°W
Report Text: EGFF 252150Z AUTO 24008KT 9999 FEW019 BKN030 OVC045 13/11 Q1020 REDZ
Loading
Personal Weather Stations






























Interactive Weather Map New forecast layout! Learn more

10-Day Weather Forecast

Advertisements
Track Severe Weather on mobile